PHOENIX SKY HARBOR INTL

KPHX (PHX)
Phoenix, Arizona
Towered

Vatsim Metar:
KPHX 291851Z 12007KT 10SM FEW080 FEW120 BKN150 BKN170 34/16 A2988 RMK AO2 SLP094 VCSH SE SHRA DSNT NW T03440156

PHOENIX SKY HARBOR INTL ATC

PHX_GND - 132.550 - Josh Glasstein
Langen Radar PDC/DCL Datalink EDDF Pilotbriefing vats.im/eddf

Traffic

Inbound:
None
Outbound:
Ident
Type
Name
Destination
Phase